createdAt,value
2024-01-20T15:16:47.879Z,1.73
2024-01-20T15:19:49.568Z,1.70
2024-01-20T15:22:51.200Z,1.70
2024-01-20T15:25:54.925Z,1.98
2024-01-20T15:28:56.821Z,2.00
2024-01-20T15:32:01.178Z,1.80
2024-01-20T15:35:03.210Z,1.70
2024-01-20T15:38:05.408Z,1.60
2024-01-20T15:41:07.198Z,1.95
2024-01-20T15:44:11.570Z,1.33
2024-01-20T15:47:13.872Z,1.50
2024-01-20T15:50:15.497Z,1.52
2024-01-20T15:53:17.063Z,1.50
2024-01-20T15:56:18.758Z,1.60
2024-01-20T15:59:24.349Z,1.60
2024-01-20T16:02:25.953Z,1.75
2024-01-20T16:05:27.592Z,2.78
2024-01-20T16:08:29.226Z,2.75
2024-01-20T16:11:30.840Z,2.70
2024-01-20T16:14:33.788Z,2.40
2024-01-20T16:17:37.274Z,2.47
2024-01-20T16:20:39.038Z,2.30
2024-01-20T16:23:40.712Z,2.25
2024-01-20T16:26:42.656Z,2.50
2024-01-20T16:29:44.547Z,1.88
2024-01-20T16:32:46.139Z,1.90
2024-01-20T16:35:47.743Z,1.85
2024-01-20T16:38:49.328Z,1.70
2024-01-20T16:41:51.143Z,2.17
2024-01-20T16:44:52.806Z,2.00
2024-01-20T16:47:55.992Z,1.70
2024-01-20T16:51:00.972Z,1.65
2024-01-20T16:54:02.643Z,1.55
2024-01-20T16:57:05.028Z,1.80
2024-01-20T17:00:09.228Z,1.70
2024-01-20T17:03:11.196Z,1.70
2024-01-20T17:06:34.107Z,1.80
2024-01-20T17:09:36.017Z,1.73
2024-01-20T17:12:37.748Z,1.90
2024-01-20T17:15:40.007Z,1.90
2024-01-20T17:18:41.729Z,1.70
2024-01-20T17:21:43.483Z,1.67
2024-01-20T17:24:45.396Z,1.60
2024-01-20T17:27:50.908Z,1.40
2024-01-20T17:30:52.592Z,1.52
2024-01-20T17:33:54.660Z,1.50
2024-01-20T17:36:57.117Z,1.73
2024-01-20T17:39:59.824Z,1.30
2024-01-20T17:43:01.383Z,1.27
2024-01-20T17:46:02.967Z,1.60
2024-01-20T17:49:05.029Z,1.50
2024-01-20T17:52:06.750Z,1.35
2024-01-20T17:55:08.718Z,1.42
2024-01-20T17:58:10.417Z,1.60
2024-01-20T18:01:12.266Z,1.30
2024-01-20T18:04:14.199Z,1.50
2024-01-20T18:07:15.845Z,1.35
2024-01-20T18:10:20.790Z,1.50
2024-01-20T18:13:23.218Z,1.30
2024-01-20T18:16:24.831Z,1.30
2024-01-20T18:19:26.512Z,1.20
2024-01-20T18:22:28.183Z,1.35
2024-01-20T18:25:29.787Z,1.40
2024-01-20T18:28:31.452Z,1.40
2024-01-20T18:31:32.986Z,1.40
2024-01-20T18:34:34.667Z,1.17
2024-01-20T18:37:36.402Z,1.30
2024-01-20T18:40:38.031Z,1.30
2024-01-20T18:43:39.981Z,1.65
2024-01-20T18:46:41.740Z,1.20
2024-01-20T18:49:43.781Z,1.63
2024-01-20T18:52:46.380Z,1.40
2024-01-20T18:55:47.965Z,1.23
2024-01-20T18:58:49.583Z,1.40
2024-01-20T19:01:51.203Z,1.40
2024-01-20T19:04:53.075Z,1.63
2024-01-20T19:07:54.688Z,1.20
2024-01-20T19:10:56.285Z,1.42
2024-01-20T19:13:58.033Z,1.42
2024-01-20T19:16:59.721Z,1.30
2024-01-20T19:20:01.401Z,1.30
2024-01-20T19:23:03.073Z,1.30
2024-01-20T19:26:04.726Z,1.55
2024-01-20T19:29:06.431Z,1.63
2024-01-20T19:32:08.215Z,1.50
2024-01-20T19:35:09.942Z,1.35
2024-01-20T19:38:11.500Z,1.60
2024-01-20T19:41:13.140Z,1.60
2024-01-20T19:44:14.932Z,1.52
2024-01-20T19:47:16.664Z,1.60
2024-01-20T19:50:18.445Z,1.70
2024-01-20T19:53:20.069Z,1.40
2024-01-20T19:56:21.638Z,1.40
2024-01-20T19:59:23.342Z,1.17
2024-01-20T20:02:24.894Z,1.40
2024-01-20T20:05:26.560Z,1.58
2024-01-20T20:08:28.933Z,1.55
2024-01-20T20:11:30.539Z,1.52
2024-01-20T20:14:32.108Z,1.65
2024-01-20T20:17:33.825Z,1.30
2024-01-20T20:20:36.601Z,1.27
2024-01-20T20:23:38.252Z,1.42
2024-01-20T20:26:43.934Z,1.50
2024-01-20T20:29:46.094Z,1.90
2024-01-20T20:32:47.819Z,1.90
2024-01-20T20:35:49.527Z,1.67
2024-01-20T20:38:51.161Z,1.58
2024-01-20T20:41:53.995Z,1.38
2024-01-20T20:44:55.700Z,1.80
2024-01-20T20:47:58.075Z,1.60
2024-01-20T20:50:59.767Z,1.60
2024-01-20T20:54:02.471Z,1.50
2024-01-20T20:57:05.025Z,1.70
2024-01-20T21:00:09.829Z,1.40
2024-01-20T21:03:11.524Z,1.30
2024-01-20T21:06:13.357Z,1.50
2024-01-20T21:09:16.696Z,1.73
2024-01-20T21:12:18.419Z,1.30
2024-01-20T21:15:20.056Z,1.55
2024-01-20T21:18:21.882Z,1.42
2024-01-20T21:21:23.544Z,1.40
2024-01-20T21:24:25.863Z,1.63
2024-01-20T21:27:30.080Z,1.33
2024-01-20T21:30:31.797Z,1.65
2024-01-20T21:33:33.524Z,1.42
2024-01-20T21:36:35.252Z,1.52
2024-01-20T21:39:38.157Z,1.50
2024-01-20T21:42:40.016Z,1.60
2024-01-20T21:45:43.826Z,1.40
2024-01-20T21:48:45.887Z,1.50
2024-01-20T21:51:47.503Z,1.30
2024-01-20T21:54:49.246Z,1.42
2024-01-20T21:57:52.984Z,1.50
2024-01-20T22:00:55.555Z,1.25
2024-01-20T22:03:57.298Z,1.67
2024-01-20T22:06:58.948Z,1.60
2024-01-20T22:10:00.448Z,1.42
2024-01-20T22:13:02.013Z,1.60
2024-01-20T22:16:03.591Z,1.40
2024-01-20T22:19:05.372Z,1.60
2024-01-20T22:22:06.984Z,1.40
2024-01-20T22:25:10.478Z,1.35
2024-01-20T22:28:12.091Z,1.50
2024-01-20T22:31:13.902Z,1.60
2024-01-20T22:34:15.499Z,1.63
2024-01-20T22:37:17.193Z,1.58
2024-01-20T22:40:18.757Z,1.40
2024-01-20T22:43:20.394Z,1.70
2024-01-20T22:46:21.997Z,1.63
2024-01-20T22:49:23.889Z,1.70
2024-01-20T22:52:26.531Z,1.50
2024-01-20T22:55:28.188Z,1.58
2024-01-20T22:58:32.157Z,1.40
2024-01-20T23:01:34.813Z,1.52
2024-01-20T23:04:36.515Z,1.58
2024-01-20T23:07:40.866Z,1.55
2024-01-20T23:10:42.492Z,1.52
2024-01-20T23:13:44.101Z,1.42
2024-01-20T23:16:45.618Z,1.50
2024-01-20T23:19:47.561Z,1.73
2024-01-20T23:22:49.122Z,1.50
2024-01-20T23:25:50.722Z,1.80
2024-01-20T23:28:52.253Z,1.70
2024-01-20T23:31:54.034Z,1.42
2024-01-20T23:34:55.582Z,1.42
2024-01-20T23:37:57.137Z,1.60
2024-01-20T23:40:58.704Z,1.40
2024-01-20T23:44:00.359Z,1.30
2024-01-20T23:47:02.204Z,1.50
2024-01-20T23:50:04.153Z,1.50
2024-01-20T23:53:06.479Z,1.40
2024-01-20T23:56:08.099Z,1.60
2024-01-20T23:59:09.677Z,1.40
